sensor_id;sensor_type;location;lat;lon;timestamp;P1;durP1;ratioP1;P2;durP2;ratioP2
9449;SDS011;4763;48.370;10.874;2023-05-19T00:00:40;7.63;;;3.40;;
9449;SDS011;4763;48.370;10.874;2023-05-19T00:03:09;6.63;;;3.40;;
9449;SDS011;4763;48.370;10.874;2023-05-19T00:05:38;5.03;;;3.30;;
9449;SDS011;4763;48.370;10.874;2023-05-19T00:08:10;6.37;;;3.13;;
9449;SDS011;4763;48.370;10.874;2023-05-19T00:10:39;5.13;;;3.10;;
9449;SDS011;4763;48.370;10.874;2023-05-19T00:13:06;5.93;;;2.60;;
9449;SDS011;4763;48.370;10.874;2023-05-19T00:15:34;5.67;;;3.00;;
9449;SDS011;4763;48.370;10.874;2023-05-19T00:18:04;6.37;;;3.43;;
9449;SDS011;4763;48.370;10.874;2023-05-19T00:20:32;3.73;;;2.93;;
9449;SDS011;4763;48.370;10.874;2023-05-19T00:23:00;7.70;;;3.00;;
9449;SDS011;4763;48.370;10.874;2023-05-19T00:25:27;7.03;;;2.77;;
9449;SDS011;4763;48.370;10.874;2023-05-19T00:27:54;10.03;;;3.20;;
9449;SDS011;4763;48.370;10.874;2023-05-19T00:30:23;7.83;;;2.83;;
9449;SDS011;4763;48.370;10.874;2023-05-19T00:32:50;6.00;;;3.07;;
9449;SDS011;4763;48.370;10.874;2023-05-19T00:35:16;6.37;;;3.00;;
9449;SDS011;4763;48.370;10.874;2023-05-19T00:37:44;8.97;;;2.83;;
9449;SDS011;4763;48.370;10.874;2023-05-19T00:40:13;13.53;;;2.83;;
9449;SDS011;4763;48.370;10.874;2023-05-19T00:42:40;6.97;;;3.20;;
9449;SDS011;4763;48.370;10.874;2023-05-19T00:45:07;5.60;;;2.60;;
9449;SDS011;4763;48.370;10.874;2023-05-19T00:47:35;5.30;;;2.60;;
9449;SDS011;4763;48.370;10.874;2023-05-19T00:50:02;5.87;;;3.07;;
9449;SDS011;4763;48.370;10.874;2023-05-19T00:52:29;6.23;;;2.90;;
9449;SDS011;4763;48.370;10.874;2023-05-19T00:55:00;7.97;;;2.97;;
9449;SDS011;4763;48.370;10.874;2023-05-19T00:57:29;5.37;;;2.80;;
9449;SDS011;4763;48.370;10.874;2023-05-19T00:59:56;5.10;;;2.53;;
9449;SDS011;4763;48.370;10.874;2023-05-19T01:02:22;4.30;;;2.93;;
9449;SDS011;4763;48.370;10.874;2023-05-19T01:04:49;5.47;;;2.87;;
9449;SDS011;4763;48.370;10.874;2023-05-19T01:07:17;11.87;;;2.97;;
9449;SDS011;4763;48.370;10.874;2023-05-19T01:09:45;5.67;;;2.90;;
9449;SDS011;4763;48.370;10.874;2023-05-19T01:12:12;6.70;;;2.97;;
9449;SDS011;4763;48.370;10.874;2023-05-19T01:14:41;10.53;;;3.40;;
9449;SDS011;4763;48.370;10.874;2023-05-19T01:17:08;5.13;;;2.70;;
9449;SDS011;4763;48.370;10.874;2023-05-19T01:19:49;4.33;;;2.47;;
9449;SDS011;4763;48.370;10.874;2023-05-19T01:22:26;5.07;;;2.97;;
9449;SDS011;4763;48.370;10.874;2023-05-19T01:28:22;4.93;;;2.90;;
9449;SDS011;4763;48.370;10.874;2023-05-19T01:31:05;4.93;;;2.87;;
9449;SDS011;4763;48.370;10.874;2023-05-19T01:33:33;5.30;;;2.57;;
9449;SDS011;4763;48.370;10.874;2023-05-19T01:36:01;5.70;;;2.63;;
9449;SDS011;4763;48.370;10.874;2023-05-19T01:38:33;7.07;;;3.03;;
9449;SDS011;4763;48.370;10.874;2023-05-19T01:41:00;6.63;;;3.20;;
9449;SDS011;4763;48.370;10.874;2023-05-19T01:43:30;4.73;;;3.00;;
9449;SDS011;4763;48.370;10.874;2023-05-19T01:45:59;6.03;;;3.10;;
9449;SDS011;4763;48.370;10.874;2023-05-19T01:48:28;5.70;;;2.97;;
9449;SDS011;4763;48.370;10.874;2023-05-19T01:50:57;10.83;;;4.00;;
9449;SDS011;4763;48.370;10.874;2023-05-19T01:53:24;7.33;;;2.73;;
9449;SDS011;4763;48.370;10.874;2023-05-19T01:55:51;5.87;;;2.80;;
9449;SDS011;4763;48.370;10.874;2023-05-19T01:58:22;9.97;;;3.07;;
9449;SDS011;4763;48.370;10.874;2023-05-19T02:00:57;8.00;;;2.60;;
9449;SDS011;4763;48.370;10.874;2023-05-19T02:03:35;8.83;;;3.47;;
9449;SDS011;4763;48.370;10.874;2023-05-19T02:06:10;5.10;;;2.87;;
9449;SDS011;4763;48.370;10.874;2023-05-19T02:08:49;3.90;;;2.70;;
9449;SDS011;4763;48.370;10.874;2023-05-19T02:11:24;5.67;;;3.27;;
9449;SDS011;4763;48.370;10.874;2023-05-19T02:13:57;6.43;;;3.43;;
9449;SDS011;4763;48.370;10.874;2023-05-19T02:16:27;3.50;;;2.43;;
9449;SDS011;4763;48.370;10.874;2023-05-19T02:18:56;6.37;;;2.90;;
9449;SDS011;4763;48.370;10.874;2023-05-19T02:21:23;9.80;;;3.63;;
9449;SDS011;4763;48.370;10.874;2023-05-19T02:23:50;7.80;;;3.00;;
9449;SDS011;4763;48.370;10.874;2023-05-19T02:26:18;7.60;;;3.43;;
9449;SDS011;4763;48.370;10.874;2023-05-19T02:28:45;4.47;;;3.00;;
9449;SDS011;4763;48.370;10.874;2023-05-19T02:31:12;9.17;;;3.13;;
9449;SDS011;4763;48.370;10.874;2023-05-19T02:33:39;6.50;;;3.07;;
9449;SDS011;4763;48.370;10.874;2023-05-19T02:36:08;6.23;;;3.47;;
9449;SDS011;4763;48.370;10.874;2023-05-19T02:38:35;6.17;;;3.00;;
9449;SDS011;4763;48.370;10.874;2023-05-19T02:41:03;7.47;;;3.23;;
9449;SDS011;4763;48.370;10.874;2023-05-19T02:43:30;6.10;;;2.87;;
9449;SDS011;4763;48.370;10.874;2023-05-19T02:45:57;7.27;;;2.87;;
9449;SDS011;4763;48.370;10.874;2023-05-19T02:48:24;7.73;;;2.97;;
9449;SDS011;4763;48.370;10.874;2023-05-19T02:50:52;6.77;;;3.07;;
9449;SDS011;4763;48.370;10.874;2023-05-19T02:53:20;8.27;;;3.03;;
9449;SDS011;4763;48.370;10.874;2023-05-19T02:55:50;6.00;;;3.17;;
9449;SDS011;4763;48.370;10.874;2023-05-19T02:58:17;7.00;;;3.30;;
9449;SDS011;4763;48.370;10.874;2023-05-19T03:00:45;5.60;;;2.77;;
9449;SDS011;4763;48.370;10.874;2023-05-19T03:03:11;6.83;;;3.23;;
9449;SDS011;4763;48.370;10.874;2023-05-19T03:05:38;7.97;;;3.33;;
9449;SDS011;4763;48.370;10.874;2023-05-19T03:08:05;11.33;;;3.50;;
9449;SDS011;4763;48.370;10.874;2023-05-19T03:10:34;5.87;;;2.63;;
9449;SDS011;4763;48.370;10.874;2023-05-19T03:13:01;7.60;;;2.70;;
9449;SDS011;4763;48.370;10.874;2023-05-19T03:15:28;6.77;;;3.30;;
9449;SDS011;4763;48.370;10.874;2023-05-19T03:17:55;8.47;;;3.50;;
9449;SDS011;4763;48.370;10.874;2023-05-19T03:20:21;6.43;;;2.93;;
9449;SDS011;4763;48.370;10.874;2023-05-19T03:22:48;6.97;;;3.83;;
9449;SDS011;4763;48.370;10.874;2023-05-19T03:25:15;6.73;;;3.13;;
9449;SDS011;4763;48.370;10.874;2023-05-19T03:27:43;8.23;;;3.07;;
9449;SDS011;4763;48.370;10.874;2023-05-19T03:30:11;6.90;;;3.17;;
9449;SDS011;4763;48.370;10.874;2023-05-19T03:32:38;6.90;;;3.03;;
9449;SDS011;4763;48.370;10.874;2023-05-19T03:35:05;6.30;;;3.20;;
9449;SDS011;4763;48.370;10.874;2023-05-19T03:37:32;4.77;;;2.67;;
9449;SDS011;4763;48.370;10.874;2023-05-19T03:39:59;8.23;;;2.67;;
9449;SDS011;4763;48.370;10.874;2023-05-19T03:42:26;6.63;;;2.90;;
9449;SDS011;4763;48.370;10.874;2023-05-19T03:44:54;5.33;;;3.20;;
9449;SDS011;4763;48.370;10.874;2023-05-19T03:47:21;7.10;;;3.03;;
9449;SDS011;4763;48.370;10.874;2023-05-19T03:49:50;4.53;;;3.00;;
9449;SDS011;4763;48.370;10.874;2023-05-19T03:52:17;6.73;;;3.53;;
9449;SDS011;4763;48.370;10.874;2023-05-19T03:54:43;12.37;;;3.53;;
9449;SDS011;4763;48.370;10.874;2023-05-19T03:57:10;6.47;;;3.10;;
9449;SDS011;4763;48.370;10.874;2023-05-19T03:59:37;8.77;;;3.50;;
9449;SDS011;4763;48.370;10.874;2023-05-19T04:02:06;7.73;;;2.90;;
9449;SDS011;4763;48.370;10.874;2023-05-19T04:04:33;7.00;;;2.80;;
9449;SDS011;4763;48.370;10.874;2023-05-19T04:07:01;5.13;;;3.13;;
9449;SDS011;4763;48.370;10.874;2023-05-19T04:09:27;5.17;;;3.10;;
9449;SDS011;4763;48.370;10.874;2023-05-19T04:11:59;5.97;;;3.03;;
9449;SDS011;4763;48.370;10.874;2023-05-19T04:14:26;4.83;;;3.23;;
9449;SDS011;4763;48.370;10.874;2023-05-19T04:16:53;8.63;;;3.43;;
9449;SDS011;4763;48.370;10.874;2023-05-19T04:19:21;4.03;;;2.50;;
9449;SDS011;4763;48.370;10.874;2023-05-19T04:21:48;11.90;;;3.27;;
9449;SDS011;4763;48.370;10.874;2023-05-19T04:24:14;9.27;;;3.50;;
9449;SDS011;4763;48.370;10.874;2023-05-19T04:26:41;10.20;;;3.27;;
9449;SDS011;4763;48.370;10.874;2023-05-19T04:29:10;8.83;;;2.50;;
9449;SDS011;4763;48.370;10.874;2023-05-19T04:31:38;5.57;;;2.57;;
9449;SDS011;4763;48.370;10.874;2023-05-19T04:34:08;7.00;;;2.90;;
9449;SDS011;4763;48.370;10.874;2023-05-19T04:36:36;8.03;;;3.03;;
9449;SDS011;4763;48.370;10.874;2023-05-19T04:39:03;4.23;;;2.60;;
9449;SDS011;4763;48.370;10.874;2023-05-19T04:41:36;14.50;;;3.10;;
9449;SDS011;4763;48.370;10.874;2023-05-19T04:44:08;11.80;;;3.43;;
9449;SDS011;4763;48.370;10.874;2023-05-19T04:46:37;9.47;;;3.10;;
9449;SDS011;4763;48.370;10.874;2023-05-19T04:49:04;5.00;;;2.90;;
9449;SDS011;4763;48.370;10.874;2023-05-19T04:51:31;6.93;;;3.10;;
9449;SDS011;4763;48.370;10.874;2023-05-19T04:54:01;11.93;;;4.47;;
9449;SDS011;4763;48.370;10.874;2023-05-19T04:56:27;7.07;;;3.10;;
9449;SDS011;4763;48.370;10.874;2023-05-19T04:58:54;3.77;;;2.60;;
9449;SDS011;4763;48.370;10.874;2023-05-19T05:01:21;6.60;;;3.47;;
9449;SDS011;4763;48.370;10.874;2023-05-19T05:03:49;7.23;;;2.87;;
9449;SDS011;4763;48.370;10.874;2023-05-19T05:06:19;5.93;;;2.97;;
9449;SDS011;4763;48.370;10.874;2023-05-19T05:08:46;8.03;;;3.20;;
9449;SDS011;4763;48.370;10.874;2023-05-19T05:11:14;5.43;;;3.60;;
9449;SDS011;4763;48.370;10.874;2023-05-19T05:13:41;9.33;;;3.13;;
9449;SDS011;4763;48.370;10.874;2023-05-19T05:16:09;6.77;;;3.50;;
9449;SDS011;4763;48.370;10.874;2023-05-19T05:18:38;5.60;;;3.40;;
9449;SDS011;4763;48.370;10.874;2023-05-19T05:21:06;8.17;;;3.20;;
9449;SDS011;4763;48.370;10.874;2023-05-19T05:23:34;7.43;;;2.97;;
9449;SDS011;4763;48.370;10.874;2023-05-19T05:26:03;7.10;;;3.00;;
9449;SDS011;4763;48.370;10.874;2023-05-19T05:28:36;7.10;;;2.87;;
9449;SDS011;4763;48.370;10.874;2023-05-19T05:31:03;4.63;;;2.73;;
9449;SDS011;4763;48.370;10.874;2023-05-19T05:33:30;6.30;;;2.57;;
9449;SDS011;4763;48.370;10.874;2023-05-19T05:35:57;6.33;;;3.40;;
9449;SDS011;4763;48.370;10.874;2023-05-19T05:38:24;5.53;;;3.23;;
9449;SDS011;4763;48.370;10.874;2023-05-19T05:40:51;11.03;;;3.80;;
9449;SDS011;4763;48.370;10.874;2023-05-19T05:43:17;6.03;;;2.93;;
9449;SDS011;4763;48.370;10.874;2023-05-19T05:45:46;6.13;;;3.43;;
9449;SDS011;4763;48.370;10.874;2023-05-19T05:48:13;6.93;;;3.17;;
9449;SDS011;4763;48.370;10.874;2023-05-19T05:50:40;6.87;;;3.10;;
9449;SDS011;4763;48.370;10.874;2023-05-19T05:53:08;9.07;;;3.07;;
9449;SDS011;4763;48.370;10.874;2023-05-19T05:55:39;8.47;;;3.63;;
9449;SDS011;4763;48.370;10.874;2023-05-19T05:58:06;7.97;;;3.80;;
9449;SDS011;4763;48.370;10.874;2023-05-19T06:00:35;5.70;;;3.27;;
9449;SDS011;4763;48.370;10.874;2023-05-19T06:03:04;6.57;;;3.60;;
9449;SDS011;4763;48.370;10.874;2023-05-19T06:05:30;10.47;;;3.10;;
9449;SDS011;4763;48.370;10.874;2023-05-19T06:07:57;5.63;;;3.40;;
9449;SDS011;4763;48.370;10.874;2023-05-19T06:10:24;9.73;;;3.73;;
9449;SDS011;4763;48.370;10.874;2023-05-19T06:12:56;5.70;;;3.27;;
9449;SDS011;4763;48.370;10.874;2023-05-19T06:15:22;5.87;;;3.90;;
9449;SDS011;4763;48.370;10.874;2023-05-19T06:17:49;9.07;;;4.03;;
9449;SDS011;4763;48.370;10.874;2023-05-19T06:20:18;9.57;;;3.23;;
9449;SDS011;4763;48.370;10.874;2023-05-19T06:22:44;8.67;;;3.90;;
9449;SDS011;4763;48.370;10.874;2023-05-19T06:25:13;9.37;;;4.20;;
9449;SDS011;4763;48.370;10.874;2023-05-19T06:27:40;7.70;;;3.37;;
9449;SDS011;4763;48.370;10.874;2023-05-19T06:30:07;6.77;;;3.57;;
9449;SDS011;4763;48.370;10.874;2023-05-19T06:32:34;8.87;;;4.27;;
9449;SDS011;4763;48.370;10.874;2023-05-19T06:35:01;12.27;;;4.33;;
9449;SDS011;4763;48.370;10.874;2023-05-19T06:37:30;5.00;;;3.53;;
9449;SDS011;4763;48.370;10.874;2023-05-19T06:39:56;9.60;;;3.90;;
9449;SDS011;4763;48.370;10.874;2023-05-19T06:42:23;6.53;;;3.70;;
9449;SDS011;4763;48.370;10.874;2023-05-19T06:44:50;5.13;;;3.73;;
9449;SDS011;4763;48.370;10.874;2023-05-19T06:47:18;8.93;;;3.90;;
9449;SDS011;4763;48.370;10.874;2023-05-19T06:49:45;7.13;;;4.17;;
9449;SDS011;4763;48.370;10.874;2023-05-19T06:52:21;5.63;;;4.07;;
9449;SDS011;4763;48.370;10.874;2023-05-19T06:54:49;6.60;;;3.80;;
9449;SDS011;4763;48.370;10.874;2023-05-19T06:57:18;6.80;;;3.60;;
9449;SDS011;4763;48.370;10.874;2023-05-19T06:59:45;6.80;;;4.03;;
9449;SDS011;4763;48.370;10.874;2023-05-19T07:02:12;4.23;;;3.57;;
9449;SDS011;4763;48.370;10.874;2023-05-19T07:04:39;6.83;;;3.87;;
9449;SDS011;4763;48.370;10.874;2023-05-19T07:07:07;6.13;;;3.43;;
9449;SDS011;4763;48.370;10.874;2023-05-19T07:09:33;6.13;;;3.50;;
9449;SDS011;4763;48.370;10.874;2023-05-19T07:12:02;9.10;;;4.97;;
9449;SDS011;4763;48.370;10.874;2023-05-19T07:14:29;5.30;;;4.17;;
9449;SDS011;4763;48.370;10.874;2023-05-19T07:16:56;5.43;;;3.83;;
9449;SDS011;4763;48.370;10.874;2023-05-19T07:19:22;6.03;;;3.40;;
9449;SDS011;4763;48.370;10.874;2023-05-19T07:21:49;12.60;;;6.00;;
9449;SDS011;4763;48.370;10.874;2023-05-19T07:24:16;8.13;;;3.60;;
9449;SDS011;4763;48.370;10.874;2023-05-19T07:26:43;5.33;;;3.43;;
9449;SDS011;4763;48.370;10.874;2023-05-19T07:29:11;10.17;;;3.93;;
9449;SDS011;4763;48.370;10.874;2023-05-19T07:31:38;5.30;;;3.67;;
9449;SDS011;4763;48.370;10.874;2023-05-19T07:34:05;8.10;;;4.00;;
9449;SDS011;4763;48.370;10.874;2023-05-19T07:36:32;6.77;;;3.40;;
9449;SDS011;4763;48.370;10.874;2023-05-19T07:38:59;5.20;;;3.50;;
9449;SDS011;4763;48.370;10.874;2023-05-19T07:41:26;7.50;;;3.80;;
9449;SDS011;4763;48.370;10.874;2023-05-19T07:43:53;8.13;;;3.57;;
9449;SDS011;4763;48.370;10.874;2023-05-19T07:46:24;6.07;;;3.50;;
9449;SDS011;4763;48.370;10.874;2023-05-19T07:48:51;7.77;;;3.73;;
9449;SDS011;4763;48.370;10.874;2023-05-19T07:51:17;6.20;;;3.67;;
9449;SDS011;4763;48.370;10.874;2023-05-19T07:53:45;7.43;;;3.90;;
9449;SDS011;4763;48.370;10.874;2023-05-19T07:56:16;7.13;;;3.83;;
9449;SDS011;4763;48.370;10.874;2023-05-19T07:58:44;5.50;;;3.80;;
9449;SDS011;4763;48.370;10.874;2023-05-19T08:01:10;5.90;;;3.60;;
9449;SDS011;4763;48.370;10.874;2023-05-19T08:03:38;10.93;;;6.40;;
9449;SDS011;4763;48.370;10.874;2023-05-19T08:06:05;6.40;;;4.17;;
9449;SDS011;4763;48.370;10.874;2023-05-19T08:08:32;4.57;;;3.50;;
9449;SDS011;4763;48.370;10.874;2023-05-19T08:11:00;4.23;;;3.53;;
9449;SDS011;4763;48.370;10.874;2023-05-19T08:13:28;5.93;;;3.40;;
9449;SDS011;4763;48.370;10.874;2023-05-19T08:15:55;6.37;;;3.93;;
9449;SDS011;4763;48.370;10.874;2023-05-19T08:18:23;7.63;;;4.03;;
9449;SDS011;4763;48.370;10.874;2023-05-19T08:20:52;8.80;;;4.10;;
9449;SDS011;4763;48.370;10.874;2023-05-19T08:23:19;5.97;;;4.30;;
9449;SDS011;4763;48.370;10.874;2023-05-19T08:25:46;8.00;;;6.00;;
9449;SDS011;4763;48.370;10.874;2023-05-19T08:28:13;11.40;;;6.63;;
9449;SDS011;4763;48.370;10.874;2023-05-19T08:30:40;23.07;;;12.57;;
9449;SDS011;4763;48.370;10.874;2023-05-19T08:33:07;41.07;;;21.77;;
9449;SDS011;4763;48.370;10.874;2023-05-19T08:35:33;18.97;;;11.83;;
9449;SDS011;4763;48.370;10.874;2023-05-19T08:38:01;13.07;;;8.27;;
9449;SDS011;4763;48.370;10.874;2023-05-19T08:40:28;9.33;;;5.77;;
9449;SDS011;4763;48.370;10.874;2023-05-19T08:42:56;5.43;;;4.07;;
9449;SDS011;4763;48.370;10.874;2023-05-19T08:45:23;7.97;;;4.30;;
9449;SDS011;4763;48.370;10.874;2023-05-19T08:47:53;7.43;;;3.97;;
9449;SDS011;4763;48.370;10.874;2023-05-19T08:50:22;12.73;;;4.97;;
9449;SDS011;4763;48.370;10.874;2023-05-19T08:52:54;8.50;;;3.90;;
9449;SDS011;4763;48.370;10.874;2023-05-19T08:55:30;8.10;;;4.53;;
9449;SDS011;4763;48.370;10.874;2023-05-19T08:58:00;8.00;;;4.33;;
9449;SDS011;4763;48.370;10.874;2023-05-19T09:00:29;5.87;;;3.63;;
9449;SDS011;4763;48.370;10.874;2023-05-19T09:02:56;5.07;;;3.77;;
9449;SDS011;4763;48.370;10.874;2023-05-19T09:05:24;5.23;;;4.23;;
9449;SDS011;4763;48.370;10.874;2023-05-19T09:07:51;9.93;;;5.37;;
9449;SDS011;4763;48.370;10.874;2023-05-19T09:10:17;12.97;;;6.20;;
9449;SDS011;4763;48.370;10.874;2023-05-19T09:12:46;7.50;;;4.60;;
9449;SDS011;4763;48.370;10.874;2023-05-19T09:15:15;8.37;;;4.47;;
9449;SDS011;4763;48.370;10.874;2023-05-19T09:17:43;5.17;;;3.80;;
9449;SDS011;4763;48.370;10.874;2023-05-19T09:20:12;6.57;;;3.17;;
9449;SDS011;4763;48.370;10.874;2023-05-19T09:22:41;4.37;;;3.73;;
9449;SDS011;4763;48.370;10.874;2023-05-19T09:25:18;4.83;;;3.50;;
9449;SDS011;4763;48.370;10.874;2023-05-19T09:27:48;6.57;;;4.50;;
9449;SDS011;4763;48.370;10.874;2023-05-19T09:30:16;5.57;;;3.87;;
9449;SDS011;4763;48.370;10.874;2023-05-19T09:32:43;6.07;;;3.33;;
9449;SDS011;4763;48.370;10.874;2023-05-19T09:35:10;4.30;;;3.10;;
9449;SDS011;4763;48.370;10.874;2023-05-19T09:37:41;5.07;;;3.43;;
9449;SDS011;4763;48.370;10.874;2023-05-19T09:40:08;9.07;;;3.27;;
9449;SDS011;4763;48.370;10.874;2023-05-19T09:42:36;4.10;;;3.47;;
9449;SDS011;4763;48.370;10.874;2023-05-19T09:45:05;3.43;;;2.67;;
9449;SDS011;4763;48.370;10.874;2023-05-19T09:47:33;4.97;;;2.90;;
9449;SDS011;4763;48.370;10.874;2023-05-19T09:50:03;3.20;;;2.70;;
9449;SDS011;4763;48.370;10.874;2023-05-19T09:52:30;5.80;;;3.00;;
9449;SDS011;4763;48.370;10.874;2023-05-19T09:54:59;5.40;;;3.27;;
9449;SDS011;4763;48.370;10.874;2023-05-19T09:57:31;4.60;;;3.40;;
9449;SDS011;4763;48.370;10.874;2023-05-19T09:59:59;2.90;;;2.47;;
9449;SDS011;4763;48.370;10.874;2023-05-19T10:02:36;4.73;;;2.40;;
9449;SDS011;4763;48.370;10.874;2023-05-19T10:05:08;4.40;;;2.60;;
9449;SDS011;4763;48.370;10.874;2023-05-19T10:07:37;3.67;;;3.00;;
9449;SDS011;4763;48.370;10.874;2023-05-19T10:10:07;5.87;;;2.77;;
9449;SDS011;4763;48.370;10.874;2023-05-19T10:12:36;4.80;;;2.73;;
9449;SDS011;4763;48.370;10.874;2023-05-19T10:15:04;2.53;;;2.30;;
9449;SDS011;4763;48.370;10.874;2023-05-19T10:17:35;3.17;;;2.60;;
9449;SDS011;4763;48.370;10.874;2023-05-19T10:20:05;4.20;;;2.90;;
9449;SDS011;4763;48.370;10.874;2023-05-19T10:22:34;9.03;;;3.03;;
9449;SDS011;4763;48.370;10.874;2023-05-19T10:25:01;10.57;;;3.00;;
9449;SDS011;4763;48.370;10.874;2023-05-19T10:27:28;3.57;;;3.03;;
9449;SDS011;4763;48.370;10.874;2023-05-19T10:29:58;4.70;;;3.00;;
9449;SDS011;4763;48.370;10.874;2023-05-19T10:32:29;4.90;;;2.87;;
9449;SDS011;4763;48.370;10.874;2023-05-19T10:35:22;3.50;;;2.70;;
9449;SDS011;4763;48.370;10.874;2023-05-19T10:38:04;3.80;;;2.60;;
9449;SDS011;4763;48.370;10.874;2023-05-19T10:40:38;3.90;;;2.70;;
9449;SDS011;4763;48.370;10.874;2023-05-19T10:43:19;4.87;;;3.03;;
9449;SDS011;4763;48.370;10.874;2023-05-19T10:45:51;3.83;;;2.90;;
9449;SDS011;4763;48.370;10.874;2023-05-19T10:48:19;4.03;;;2.77;;
9449;SDS011;4763;48.370;10.874;2023-05-19T10:50:47;4.93;;;3.20;;
9449;SDS011;4763;48.370;10.874;2023-05-19T10:53:18;3.97;;;3.13;;
9449;SDS011;4763;48.370;10.874;2023-05-19T10:55:49;3.90;;;2.90;;
9449;SDS011;4763;48.370;10.874;2023-05-19T10:58:35;3.90;;;2.83;;
9449;SDS011;4763;48.370;10.874;2023-05-19T11:01:15;3.50;;;2.90;;
9449;SDS011;4763;48.370;10.874;2023-05-19T11:03:43;5.97;;;2.53;;
9449;SDS011;4763;48.370;10.874;2023-05-19T11:06:17;3.13;;;2.83;;
9449;SDS011;4763;48.370;10.874;2023-05-19T11:08:45;3.67;;;2.63;;
9449;SDS011;4763;48.370;10.874;2023-05-19T11:11:13;3.43;;;2.67;;
9449;SDS011;4763;48.370;10.874;2023-05-19T11:13:41;3.37;;;2.60;;
9449;SDS011;4763;48.370;10.874;2023-05-19T11:16:11;9.40;;;2.93;;
9449;SDS011;4763;48.370;10.874;2023-05-19T11:18:39;5.03;;;3.27;;
9449;SDS011;4763;48.370;10.874;2023-05-19T11:21:06;3.67;;;2.80;;
9449;SDS011;4763;48.370;10.874;2023-05-19T11:23:35;4.33;;;2.63;;
9449;SDS011;4763;48.370;10.874;2023-05-19T11:26:05;4.00;;;2.50;;
9449;SDS011;4763;48.370;10.874;2023-05-19T11:28:33;3.97;;;3.13;;
9449;SDS011;4763;48.370;10.874;2023-05-19T11:31:00;4.00;;;2.83;;
9449;SDS011;4763;48.370;10.874;2023-05-19T11:33:28;5.17;;;2.60;;
9449;SDS011;4763;48.370;10.874;2023-05-19T11:35:57;3.47;;;2.87;;
9449;SDS011;4763;48.370;10.874;2023-05-19T11:38:24;2.77;;;2.47;;
9449;SDS011;4763;48.370;10.874;2023-05-19T11:40:53;5.50;;;3.57;;
9449;SDS011;4763;48.370;10.874;2023-05-19T11:43:24;5.00;;;2.50;;
9449;SDS011;4763;48.370;10.874;2023-05-19T11:45:52;7.17;;;3.00;;
9449;SDS011;4763;48.370;10.874;2023-05-19T11:48:19;4.67;;;2.70;;
9449;SDS011;4763;48.370;10.874;2023-05-19T11:50:46;4.63;;;2.70;;
9449;SDS011;4763;48.370;10.874;2023-05-19T11:53:14;4.07;;;3.30;;
9449;SDS011;4763;48.370;10.874;2023-05-19T11:55:41;5.07;;;2.83;;
9449;SDS011;4763;48.370;10.874;2023-05-19T11:58:11;5.20;;;3.03;;
9449;SDS011;4763;48.370;10.874;2023-05-19T12:00:38;4.20;;;2.60;;
9449;SDS011;4763;48.370;10.874;2023-05-19T12:03:06;4.17;;;3.10;;
9449;SDS011;4763;48.370;10.874;2023-05-19T12:05:35;6.87;;;2.90;;
9449;SDS011;4763;48.370;10.874;2023-05-19T12:08:03;3.40;;;2.90;;
9449;SDS011;4763;48.370;10.874;2023-05-19T12:10:30;4.20;;;2.90;;
9449;SDS011;4763;48.370;10.874;2023-05-19T12:12:59;6.03;;;3.10;;
9449;SDS011;4763;48.370;10.874;2023-05-19T12:15:28;3.77;;;2.80;;
9449;SDS011;4763;48.370;10.874;2023-05-19T12:17:57;4.33;;;3.00;;
9449;SDS011;4763;48.370;10.874;2023-05-19T12:20:26;5.33;;;2.80;;
9449;SDS011;4763;48.370;10.874;2023-05-19T12:22:56;5.90;;;2.93;;
9449;SDS011;4763;48.370;10.874;2023-05-19T12:25:23;5.67;;;3.40;;
9449;SDS011;4763;48.370;10.874;2023-05-19T12:27:50;6.33;;;2.87;;
9449;SDS011;4763;48.370;10.874;2023-05-19T12:30:23;10.30;;;3.37;;
9449;SDS011;4763;48.370;10.874;2023-05-19T12:32:53;6.73;;;3.13;;
9449;SDS011;4763;48.370;10.874;2023-05-19T12:35:24;6.83;;;3.30;;
9449;SDS011;4763;48.370;10.874;2023-05-19T12:37:52;3.87;;;3.10;;
9449;SDS011;4763;48.370;10.874;2023-05-19T12:40:19;3.57;;;2.43;;
9449;SDS011;4763;48.370;10.874;2023-05-19T12:42:46;4.10;;;2.87;;
9449;SDS011;4763;48.370;10.874;2023-05-19T12:45:18;12.63;;;3.10;;
9449;SDS011;4763;48.370;10.874;2023-05-19T12:47:47;7.43;;;3.17;;
9449;SDS011;4763;48.370;10.874;2023-05-19T12:50:16;5.97;;;3.03;;
9449;SDS011;4763;48.370;10.874;2023-05-19T12:52:43;8.53;;;2.90;;
9449;SDS011;4763;48.370;10.874;2023-05-19T12:55:11;6.10;;;3.03;;
9449;SDS011;4763;48.370;10.874;2023-05-19T12:57:40;4.50;;;3.10;;
9449;SDS011;4763;48.370;10.874;2023-05-19T13:00:12;4.30;;;2.37;;
9449;SDS011;4763;48.370;10.874;2023-05-19T13:02:54;6.90;;;3.83;;
9449;SDS011;4763;48.370;10.874;2023-05-19T13:05:24;8.73;;;3.17;;
9449;SDS011;4763;48.370;10.874;2023-05-19T13:07:54;3.00;;;2.43;;
9449;SDS011;4763;48.370;10.874;2023-05-19T13:10:21;7.40;;;3.20;;
9449;SDS011;4763;48.370;10.874;2023-05-19T13:12:51;3.73;;;3.13;;
9449;SDS011;4763;48.370;10.874;2023-05-19T13:15:17;4.77;;;2.83;;
9449;SDS011;4763;48.370;10.874;2023-05-19T13:17:44;6.63;;;3.30;;
9449;SDS011;4763;48.370;10.874;2023-05-19T13:20:11;3.63;;;2.87;;
9449;SDS011;4763;48.370;10.874;2023-05-19T13:22:39;4.87;;;2.80;;
9449;SDS011;4763;48.370;10.874;2023-05-19T13:25:07;5.27;;;2.83;;
9449;SDS011;4763;48.370;10.874;2023-05-19T13:27:34;7.53;;;2.87;;
9449;SDS011;4763;48.370;10.874;2023-05-19T13:30:01;3.87;;;2.73;;
9449;SDS011;4763;48.370;10.874;2023-05-19T13:32:28;6.00;;;2.73;;
9449;SDS011;4763;48.370;10.874;2023-05-19T13:34:55;3.07;;;2.73;;
9449;SDS011;4763;48.370;10.874;2023-05-19T13:37:22;6.03;;;3.27;;
9449;SDS011;4763;48.370;10.874;2023-05-19T13:39:50;3.03;;;2.43;;
9449;SDS011;4763;48.370;10.874;2023-05-19T13:42:17;5.43;;;2.60;;
9449;SDS011;4763;48.370;10.874;2023-05-19T13:44:44;4.03;;;2.63;;
9449;SDS011;4763;48.370;10.874;2023-05-19T13:47:10;3.80;;;2.50;;
9449;SDS011;4763;48.370;10.874;2023-05-19T13:49:38;10.57;;;2.70;;
9449;SDS011;4763;48.370;10.874;2023-05-19T13:52:05;5.10;;;2.97;;
9449;SDS011;4763;48.370;10.874;2023-05-19T13:54:32;4.77;;;2.33;;
9449;SDS011;4763;48.370;10.874;2023-05-19T13:57:00;2.67;;;2.27;;
9449;SDS011;4763;48.370;10.874;2023-05-19T13:59:27;3.03;;;2.50;;
9449;SDS011;4763;48.370;10.874;2023-05-19T14:01:54;4.27;;;2.63;;
9449;SDS011;4763;48.370;10.874;2023-05-19T14:04:21;5.63;;;2.57;;
9449;SDS011;4763;48.370;10.874;2023-05-19T14:06:48;4.70;;;2.93;;
9449;SDS011;4763;48.370;10.874;2023-05-19T14:09:15;4.33;;;2.53;;
9449;SDS011;4763;48.370;10.874;2023-05-19T14:11:42;3.00;;;2.63;;
9449;SDS011;4763;48.370;10.874;2023-05-19T14:14:11;8.43;;;2.70;;
9449;SDS011;4763;48.370;10.874;2023-05-19T14:16:38;3.67;;;2.13;;
9449;SDS011;4763;48.370;10.874;2023-05-19T14:19:05;3.10;;;2.33;;
9449;SDS011;4763;48.370;10.874;2023-05-19T14:21:31;4.73;;;2.53;;
9449;SDS011;4763;48.370;10.874;2023-05-19T14:23:58;3.13;;;2.20;;
9449;SDS011;4763;48.370;10.874;2023-05-19T14:26:25;3.00;;;2.20;;
9449;SDS011;4763;48.370;10.874;2023-05-19T14:28:52;4.07;;;2.73;;
9449;SDS011;4763;48.370;10.874;2023-05-19T14:31:22;5.37;;;2.23;;
9449;SDS011;4763;48.370;10.874;2023-05-19T14:33:49;5.27;;;2.50;;
9449;SDS011;4763;48.370;10.874;2023-05-19T14:36:16;3.97;;;2.23;;
9449;SDS011;4763;48.370;10.874;2023-05-19T14:38:43;3.63;;;2.30;;
9449;SDS011;4763;48.370;10.874;2023-05-19T14:41:10;2.70;;;1.90;;
9449;SDS011;4763;48.370;10.874;2023-05-19T14:43:37;5.90;;;2.37;;
9449;SDS011;4763;48.370;10.874;2023-05-19T14:46:06;3.40;;;2.33;;
9449;SDS011;4763;48.370;10.874;2023-05-19T14:48:34;4.00;;;2.20;;
9449;SDS011;4763;48.370;10.874;2023-05-19T14:51:00;8.83;;;2.43;;
9449;SDS011;4763;48.370;10.874;2023-05-19T14:53:27;3.80;;;1.87;;
9449;SDS011;4763;48.370;10.874;2023-05-19T14:55:54;4.10;;;2.60;;
9449;SDS011;4763;48.370;10.874;2023-05-19T14:58:20;2.93;;;2.20;;
9449;SDS011;4763;48.370;10.874;2023-05-19T15:00:47;3.57;;;2.13;;
9449;SDS011;4763;48.370;10.874;2023-05-19T15:03:14;3.47;;;2.23;;
9449;SDS011;4763;48.370;10.874;2023-05-19T15:05:42;3.97;;;2.57;;
9449;SDS011;4763;48.370;10.874;2023-05-19T15:08:09;3.40;;;2.03;;
9449;SDS011;4763;48.370;10.874;2023-05-19T15:10:36;2.43;;;1.97;;